Time;durP1;ratioP1;P1;durP2;ratioP2;P2;SDS_P1;SDS_P2;PMS_P1;PMS_P2;Temp;Humidity;BMP_temperature;BMP_pressure;BME280_temperature;BME280_humidity;BME280_pressure;Samples;Min_cycle;Max_cycle;Signal;HPM_P1;HPM_P2
2023/07/13 00:00:16;;;;;;;7.95;1.67;;;;;;;;;;5028321;28;20487;-68
2023/07/13 00:02:42;;;;;;;10.32;1.80;;;;;;;;;;5020264;28;20625;-67
2023/07/13 00:05:07;;;;;;;6.53;1.98;;;;;;;;;;5028085;28;20611;-67
2023/07/13 00:07:34;;;;;;;5.30;1.50;;;;;;;;;;5021318;28;20190;-67
2023/07/13 00:09:59;;;;;;;5.93;1.50;;;;;;;;;;5022304;28;20241;-68
2023/07/13 00:12:27;;;;;;;9.20;1.70;;;;;;;;;;5016167;28;20661;-67
2023/07/13 00:14:52;;;;;;;11.05;2.13;;;;;;;;;;5027195;28;20182;-67
2023/07/13 00:17:18;;;;;;;7.95;1.70;;;;;;;;;;5018422;28;20194;-67
2023/07/13 00:19:43;;;;;;;5.15;1.60;;;;;;;;;;5021580;28;20260;-67
2023/07/13 00:22:08;;;;;;;7.00;1.95;;;;;;;;;;5025798;28;20239;-68
2023/07/13 00:24:35;;;;;;;11.77;2.25;;;;;;;;;;5021442;28;20232;-67
2023/07/13 00:27:01;;;;;;;5.47;1.65;;;;;;;;;;5021849;28;20706;-67
2023/07/13 00:29:27;;;;;;;12.43;2.13;;;;;;;;;;5028084;28;20277;-66
2023/07/13 00:31:52;;;;;;;5.95;1.70;;;;;;;;;;5018314;28;20206;-66
2023/07/13 00:34:17;;;;;;;7.97;2.30;;;;;;;;;;5021892;28;20265;-67
2023/07/13 00:36:43;;;;;;;11.32;2.45;;;;;;;;;;5012771;28;20186;-67
2023/07/13 00:39:09;;;;;;;8.93;2.13;;;;;;;;;;5026307;28;20689;-66
2023/07/13 00:41:35;;;;;;;9.90;2.00;;;;;;;;;;5014581;28;20253;-67
2023/07/13 00:44:00;;;;;;;6.05;1.90;;;;;;;;;;5023872;28;20304;-67
2023/07/13 00:46:32;;;;;;;11.93;1.90;;;;;;;;;;5023859;28;20281;-66
2023/07/13 00:49:07;;;;;;;9.05;2.25;;;;;;;;;;5026486;28;20197;-66
2023/07/13 00:51:42;;;;;;;7.65;1.98;;;;;;;;;;5025472;28;20664;-67
2023/07/13 00:54:12;;;;;;;8.32;1.90;;;;;;;;;;5023585;28;20198;-66
2023/07/13 00:56:39;;;;;;;14.05;2.40;;;;;;;;;;5025233;28;20198;-66
2023/07/13 00:59:08;;;;;;;10.10;2.40;;;;;;;;;;5025085;28;20196;-66
2023/07/13 01:01:33;;;;;;;7.28;1.90;;;;;;;;;;5018958;28;20714;-67
2023/07/13 01:03:59;;;;;;;8.38;2.65;;;;;;;;;;5025702;28;20210;-66
2023/07/13 01:06:25;;;;;;;15.00;2.35;;;;;;;;;;5019602;28;20717;-67
2023/07/13 01:08:50;;;;;;;13.38;2.42;;;;;;;;;;5014306;28;20202;-68
2023/07/13 01:11:21;;;;;;;10.73;1.83;;;;;;;;;;5019742;28;20201;-68
2023/07/13 01:13:47;;;;;;;11.93;2.78;;;;;;;;;;5026101;28;20253;-68
2023/07/13 01:16:24;;;;;;;9.32;2.35;;;;;;;;;;5023817;28;20187;-67
2023/07/13 01:18:49;;;;;;;18.23;3.38;;;;;;;;;;5025149;28;20307;-68
2023/07/13 01:21:16;;;;;;;7.95;2.25;;;;;;;;;;5023507;28;20672;-67
2023/07/13 01:23:41;;;;;;;15.10;2.55;;;;;;;;;;5021024;28;20210;-68
2023/07/13 01:26:06;;;;;;;12.63;2.78;;;;;;;;;;5020123;28;20209;-66
2023/07/13 01:28:36;;;;;;;11.35;2.60;;;;;;;;;;5018292;28;20221;-67
2023/07/13 01:31:02;;;;;;;8.82;2.58;;;;;;;;;;5023559;28;20190;-67
2023/07/13 01:33:28;;;;;;;11.55;3.03;;;;;;;;;;5026920;28;20251;-66
2023/07/13 01:35:57;;;;;;;12.57;2.92;;;;;;;;;;5024178;28;20202;-67
2023/07/13 01:38:23;;;;;;;8.27;3.03;;;;;;;;;;5026451;28;20197;-67
2023/07/13 01:40:50;;;;;;;11.43;2.88;;;;;;;;;;5019389;28;20821;-65
2023/07/13 01:43:16;;;;;;;10.93;2.45;;;;;;;;;;5025767;28;20325;-67
2023/07/13 01:45:43;;;;;;;10.32;3.08;;;;;;;;;;5025161;28;20265;-66
2023/07/13 01:48:09;;;;;;;13.73;2.85;;;;;;;;;;5015878;28;20233;-66
2023/07/13 01:50:35;;;;;;;11.85;2.72;;;;;;;;;;5024297;28;20197;-67
2023/07/13 01:53:01;;;;;;;11.50;2.97;;;;;;;;;;5021360;28;20182;-65
2023/07/13 01:55:28;;;;;;;12.50;4.00;;;;;;;;;;5014936;28;20719;-66
2023/07/13 01:57:53;;;;;;;9.23;2.78;;;;;;;;;;5023363;28;20198;-66
2023/07/13 02:00:19;;;;;;;9.05;2.42;;;;;;;;;;5021197;28;20201;-65
2023/07/13 02:02:44;;;;;;;9.73;2.78;;;;;;;;;;5016617;28;20542;-66
2023/07/13 02:05:11;;;;;;;8.88;2.70;;;;;;;;;;5023370;28;20260;-67
2023/07/13 02:07:36;;;;;;;10.00;2.60;;;;;;;;;;5021912;28;20684;-66
2023/07/13 02:10:02;;;;;;;8.98;3.08;;;;;;;;;;5019021;28;20194;-67
2023/07/13 02:12:27;;;;;;;11.45;3.08;;;;;;;;;;5018920;28;20634;-67
2023/07/13 02:14:53;;;;;;;15.95;3.00;;;;;;;;;;5015203;28;20277;-67
2023/07/13 02:17:18;;;;;;;12.40;3.05;;;;;;;;;;5019971;28;20189;-66
2023/07/13 02:19:44;;;;;;;11.98;3.10;;;;;;;;;;5028158;28;20672;-68
2023/07/13 02:22:09;;;;;;;10.95;3.00;;;;;;;;;;5024491;28;20194;-66
2023/07/13 02:24:35;;;;;;;11.90;3.25;;;;;;;;;;5030263;28;20217;-66
2023/07/13 02:27:00;;;;;;;11.73;3.00;;;;;;;;;;5021385;28;20213;-67
2023/07/13 02:29:26;;;;;;;10.18;2.88;;;;;;;;;;5028266;28;20186;-66
2023/07/13 02:31:51;;;;;;;12.98;3.40;;;;;;;;;;5020218;28;20197;-66
2023/07/13 02:34:17;;;;;;;8.85;3.28;;;;;;;;;;5029654;28;20198;-67
2023/07/13 02:36:42;;;;;;;9.45;2.78;;;;;;;;;;5026389;28;20692;-67
2023/07/13 02:39:08;;;;;;;10.15;3.75;;;;;;;;;;5029417;28;20198;-68
2023/07/13 02:41:34;;;;;;;11.40;3.40;;;;;;;;;;5029584;28;20645;-66
2023/07/13 02:44:03;;;;;;;10.20;2.70;;;;;;;;;;5015838;28;20214;-67
2023/07/13 02:46:36;;;;;;;7.40;2.67;;;;;;;;;;5030010;28;20222;-66
2023/07/13 02:49:02;;;;;;;8.48;2.63;;;;;;;;;;5025551;28;20181;-67
2023/07/13 02:51:28;;;;;;;10.00;2.85;;;;;;;;;;5019875;28;20201;-65
2023/07/13 02:53:53;;;;;;;7.35;2.55;;;;;;;;;;5025073;28;20186;-66
2023/07/13 02:56:23;;;;;;;11.13;2.80;;;;;;;;;;5027017;28;20194;-65
2023/07/13 02:58:49;;;;;;;10.82;2.60;;;;;;;;;;5021509;28;20757;-64
2023/07/13 03:01:17;;;;;;;6.45;2.58;;;;;;;;;;5027743;28;20201;-66
2023/07/13 03:03:43;;;;;;;10.35;2.50;;;;;;;;;;5020979;28;20549;-66
2023/07/13 03:06:09;;;;;;;10.65;2.92;;;;;;;;;;5026623;28;20182;-66
2023/07/13 03:08:34;;;;;;;6.97;2.60;;;;;;;;;;5021931;28;20277;-65
2023/07/13 03:11:11;;;;;;;9.15;2.70;;;;;;;;;;5028585;28;20197;-66
2023/07/13 03:13:37;;;;;;;8.25;2.78;;;;;;;;;;5022118;28;20194;-65
2023/07/13 03:16:03;;;;;;;10.95;2.50;;;;;;;;;;5027133;28;20206;-66
2023/07/13 03:18:29;;;;;;;11.10;2.42;;;;;;;;;;5028406;28;20189;-66
2023/07/13 03:20:55;;;;;;;10.93;2.75;;;;;;;;;;5027169;28;20368;-65
2023/07/13 03:23:21;;;;;;;10.13;2.83;;;;;;;;;;5022543;28;20606;-66
2023/07/13 03:25:48;;;;;;;7.43;2.30;;;;;;;;;;5026978;28;20598;-67
2023/07/13 03:28:13;;;;;;;8.68;2.45;;;;;;;;;;5028991;28;20198;-67
2023/07/13 03:30:39;;;;;;;10.13;2.78;;;;;;;;;;5020323;28;20236;-67
2023/07/13 03:33:05;;;;;;;8.23;2.47;;;;;;;;;;5025655;28;20189;-67
2023/07/13 03:35:32;;;;;;;7.88;2.80;;;;;;;;;;5027443;28;20182;-66
2023/07/13 03:37:58;;;;;;;9.30;2.50;;;;;;;;;;5020149;28;20186;-68
2023/07/13 03:40:25;;;;;;;8.20;2.78;;;;;;;;;;5027906;28;20675;-66
2023/07/13 03:42:50;;;;;;;8.90;2.58;;;;;;;;;;5020652;28;20208;-66
2023/07/13 03:45:15;;;;;;;10.05;2.80;;;;;;;;;;5021830;28;20273;-66
2023/07/13 03:47:41;;;;;;;6.65;2.85;;;;;;;;;;5015595;28;20190;-66
2023/07/13 03:50:07;;;;;;;9.85;2.95;;;;;;;;;;5024743;28;20595;-67
2023/07/13 03:52:32;;;;;;;6.07;2.45;;;;;;;;;;5022029;28;20221;-66
2023/07/13 03:54:58;;;;;;;9.10;2.53;;;;;;;;;;5027928;28;20192;-67
2023/07/13 03:57:23;;;;;;;8.60;3.08;;;;;;;;;;5027676;28;20720;-65
2023/07/13 03:59:49;;;;;;;10.27;2.80;;;;;;;;;;5027156;28;20194;-66
2023/07/13 04:02:14;;;;;;;7.78;3.05;;;;;;;;;;5021910;28;20222;-67
2023/07/13 04:04:42;;;;;;;8.30;2.95;;;;;;;;;;5016575;28;20549;-65
2023/07/13 04:07:08;;;;;;;9.18;3.40;;;;;;;;;;5024675;28;20711;-66
2023/07/13 04:09:34;;;;;;;8.80;2.70;;;;;;;;;;5028377;28;20269;-66
2023/07/13 04:11:59;;;;;;;10.20;3.10;;;;;;;;;;5026256;28;20194;-65
2023/07/13 04:14:25;;;;;;;9.80;3.13;;;;;;;;;;5026149;28;20597;-65
2023/07/13 04:16:51;;;;;;;8.88;3.00;;;;;;;;;;5027130;28;20662;-65
2023/07/13 04:19:17;;;;;;;11.60;3.15;;;;;;;;;;5023501;28;20233;-66
2023/07/13 04:21:42;;;;;;;13.38;3.05;;;;;;;;;;5027934;28;20336;-67
2023/07/13 04:24:08;;;;;;;11.20;3.60;;;;;;;;;;5024597;28;20221;-68
2023/07/13 04:26:35;;;;;;;10.93;3.35;;;;;;;;;;5029120;28;20261;-66
2023/07/13 04:29:03;;;;;;;9.43;2.75;;;;;;;;;;5025179;28;20246;-65
2023/07/13 04:31:29;;;;;;;12.32;3.78;;;;;;;;;;5022766;28;20442;-65
2023/07/13 04:33:54;;;;;;;14.15;3.42;;;;;;;;;;5020365;28;20628;-66
2023/07/13 04:36:20;;;;;;;17.63;4.18;;;;;;;;;;5025436;28;20190;-67
2023/07/13 04:38:45;;;;;;;12.02;3.67;;;;;;;;;;5021719;28;20186;-67
2023/07/13 04:41:12;;;;;;;13.57;4.13;;;;;;;;;;5025849;28;20230;-66
2023/07/13 04:43:37;;;;;;;10.82;3.78;;;;;;;;;;5018498;28;20255;-64
2023/07/13 04:46:09;;;;;;;13.40;3.90;;;;;;;;;;5016701;28;20246;-67
2023/07/13 04:48:35;;;;;;;11.63;3.88;;;;;;;;;;5017659;28;20698;-65
2023/07/13 04:51:01;;;;;;;10.68;3.80;;;;;;;;;;5027376;28;20456;-65
2023/07/13 04:53:27;;;;;;;14.18;3.92;;;;;;;;;;5023026;28;20205;-67
2023/07/13 04:55:53;;;;;;;11.45;4.20;;;;;;;;;;5020279;28;20274;-66
2023/07/13 04:58:18;;;;;;;14.02;3.58;;;;;;;;;;5022350;28;20211;-68
2023/07/13 05:00:44;;;;;;;14.32;4.03;;;;;;;;;;5026142;28;20202;-69
2023/07/13 05:03:09;;;;;;;11.43;3.88;;;;;;;;;;5023894;28;20210;-66
2023/07/13 05:05:35;;;;;;;10.35;3.67;;;;;;;;;;5024659;28;20616;-65
2023/07/13 05:08:00;;;;;;;15.25;3.67;;;;;;;;;;5021576;28;20713;-67
2023/07/13 05:10:26;;;;;;;11.13;4.18;;;;;;;;;;5019736;28;20182;-66
2023/07/13 05:12:51;;;;;;;16.10;4.30;;;;;;;;;;5024984;28;20281;-67
2023/07/13 05:15:20;;;;;;;14.52;4.32;;;;;;;;;;5024101;28;20194;-67
2023/07/13 05:17:47;;;;;;;12.77;4.40;;;;;;;;;;5019966;28;20208;-69
2023/07/13 05:20:12;;;;;;;14.45;3.80;;;;;;;;;;5025718;28;20276;-68
2023/07/13 05:22:38;;;;;;;17.15;4.78;;;;;;;;;;5017775;28;20730;-66
2023/07/13 05:25:07;;;;;;;13.50;4.20;;;;;;;;;;5027138;28;20214;-67
2023/07/13 05:27:34;;;;;;;12.85;4.13;;;;;;;;;;5026343;28;20209;-67
2023/07/13 05:30:00;;;;;;;15.73;4.38;;;;;;;;;;5025434;28;20202;-68
2023/07/13 05:32:25;;;;;;;9.02;3.83;;;;;;;;;;5022350;28;20721;-67
2023/07/13 05:34:51;;;;;;;11.20;4.07;;;;;;;;;;5025805;28;20693;-67
2023/07/13 05:37:16;;;;;;;11.20;3.80;;;;;;;;;;5025785;28;20297;-68
2023/07/13 05:39:42;;;;;;;17.15;4.57;;;;;;;;;;5025978;28;20190;-68
2023/07/13 05:42:07;;;;;;;12.60;4.00;;;;;;;;;;5026520;28;20225;-67
2023/07/13 05:44:33;;;;;;;15.30;4.82;;;;;;;;;;5018126;28;20270;-67
2023/07/13 05:46:58;;;;;;;10.93;4.75;;;;;;;;;;5026468;28;20240;-68
2023/07/13 05:49:24;;;;;;;12.52;4.20;;;;;;;;;;5022266;28;20265;-65
2023/07/13 05:51:49;;;;;;;13.55;4.35;;;;;;;;;;5031384;28;20217;-68
2023/07/13 05:54:15;;;;;;;12.15;4.53;;;;;;;;;;5029284;28;20665;-67
2023/07/13 05:56:41;;;;;;;17.67;4.80;;;;;;;;;;5028823;28;20193;-68
2023/07/13 05:59:06;;;;;;;13.00;4.95;;;;;;;;;;5028012;28;20186;-67
2023/07/13 06:01:31;;;;;;;12.40;4.50;;;;;;;;;;5030763;28;20608;-67
2023/07/13 06:03:57;;;;;;;16.77;4.90;;;;;;;;;;5029385;28;20265;-66
2023/07/13 06:06:23;;;;;;;15.38;4.93;;;;;;;;;;5029228;28;20251;-67
2023/07/13 06:08:48;;;;;;;20.55;5.28;;;;;;;;;;5024647;28;20316;-65
2023/07/13 06:11:15;;;;;;;12.27;5.53;;;;;;;;;;5027582;28;20295;-67
2023/07/13 06:13:40;;;;;;;18.13;5.25;;;;;;;;;;5030198;28;20187;-67
2023/07/13 06:16:06;;;;;;;19.30;5.25;;;;;;;;;;5030001;28;20602;-68
2023/07/13 06:18:34;;;;;;;16.65;5.28;;;;;;;;;;5023840;28;20179;-67
2023/07/13 06:20:59;;;;;;;15.32;4.90;;;;;;;;;;5026382;28;20189;-69
2023/07/13 06:23:25;;;;;;;13.77;5.38;;;;;;;;;;5028572;28;20651;-67
2023/07/13 06:25:51;;;;;;;17.90;5.13;;;;;;;;;;5030498;28;20676;-67
2023/07/13 06:28:16;;;;;;;20.83;5.60;;;;;;;;;;5029151;28;20553;-67
2023/07/13 06:30:41;;;;;;;17.95;5.22;;;;;;;;;;5026541;28;20277;-65
2023/07/13 06:33:10;;;;;;;17.83;5.32;;;;;;;;;;5021962;28;20190;-67
2023/07/13 06:35:35;;;;;;;15.05;5.05;;;;;;;;;;5028695;28;20369;-67
2023/07/13 06:38:02;;;;;;;18.55;5.55;;;;;;;;;;5027972;28;20321;-67
2023/07/13 06:40:28;;;;;;;16.02;5.20;;;;;;;;;;5028190;28;20226;-66
2023/07/13 06:42:54;;;;;;;20.85;5.93;;;;;;;;;;5021528;28;20194;-66
2023/07/13 06:45:19;;;;;;;18.13;5.90;;;;;;;;;;5029128;28;20588;-67
2023/07/13 06:47:45;;;;;;;13.50;5.18;;;;;;;;;;5025682;28;20606;-68
2023/07/13 06:50:10;;;;;;;19.98;7.47;;;;;;;;;;5029013;28;20293;-66
2023/07/13 06:52:36;;;;;;;18.52;6.00;;;;;;;;;;5025670;28;20190;-67
2023/07/13 06:55:01;;;;;;;18.42;7.10;;;;;;;;;;5028968;28;20197;-67
2023/07/13 06:57:27;;;;;;;17.35;6.20;;;;;;;;;;5029134;28;20220;-68
2023/07/13 06:59:52;;;;;;;20.98;6.43;;;;;;;;;;5028426;28;20213;-68
2023/07/13 07:02:18;;;;;;;16.40;7.53;;;;;;;;;;5018555;28;20213;-67
2023/07/13 07:04:43;;;;;;;19.55;7.38;;;;;;;;;;5027805;28;20213;-67
2023/07/13 07:07:09;;;;;;;21.70;7.18;;;;;;;;;;5029082;28;20190;-67
2023/07/13 07:09:34;;;;;;;22.67;7.53;;;;;;;;;;5021129;28;20289;-68
2023/07/13 07:11:59;;;;;;;22.00;7.68;;;;;;;;;;5026849;28;20194;-66
2023/07/13 07:14:25;;;;;;;18.63;7.85;;;;;;;;;;5019090;28;20544;-69
2023/07/13 07:16:50;;;;;;;16.38;7.30;;;;;;;;;;5026493;28;20178;-68
2023/07/13 07:19:16;;;;;;;19.15;7.63;;;;;;;;;;5020886;28;20206;-67
2023/07/13 07:21:42;;;;;;;15.63;7.07;;;;;;;;;;5025615;28;20190;-66
2023/07/13 07:24:07;;;;;;;20.23;7.10;;;;;;;;;;5022344;28;20313;-71
2023/07/13 07:26:33;;;;;;;21.65;7.88;;;;;;;;;;5024839;28;20654;-67
2023/07/13 07:28:59;;;;;;;16.00;7.55;;;;;;;;;;5020160;28;20277;-68
2023/07/13 07:31:24;;;;;;;17.73;7.45;;;;;;;;;;5027321;28;20186;-69
2023/07/13 07:33:50;;;;;;;15.88;6.50;;;;;;;;;;5024435;28;20289;-67
2023/07/13 07:36:16;;;;;;;16.50;7.20;;;;;;;;;;5028253;28;20624;-69
2023/07/13 07:38:42;;;;;;;14.25;7.35;;;;;;;;;;5023970;28;20191;-68
2023/07/13 07:41:07;;;;;;;13.98;7.53;;;;;;;;;;5020761;28;20234;-66
2023/07/13 07:43:33;;;;;;;18.80;7.88;;;;;;;;;;5022184;28;20214;-68
2023/07/13 07:45:58;;;;;;;18.33;8.45;;;;;;;;;;5026107;28;20247;-66
2023/07/13 07:48:24;;;;;;;19.75;7.88;;;;;;;;;;5023683;28;20240;-68
2023/07/13 07:50:49;;;;;;;18.42;8.25;;;;;;;;;;5027132;28;20193;-69
2023/07/13 07:53:15;;;;;;;17.70;7.85;;;;;;;;;;5027025;28;20205;-68
2023/07/13 07:55:40;;;;;;;21.83;9.32;;;;;;;;;;5023771;28;20226;-69
2023/07/13 07:58:06;;;;;;;16.52;8.63;;;;;;;;;;5016373;28;20201;-68
2023/07/13 08:00:32;;;;;;;19.92;8.57;;;;;;;;;;5023053;28;20206;-68
2023/07/13 08:02:59;;;;;;;22.48;8.43;;;;;;;;;;5019825;28;20186;-69
2023/07/13 08:05:24;;;;;;;17.85;9.13;;;;;;;;;;5026005;28;20661;-68
2023/07/13 08:07:50;;;;;;;17.15;8.80;;;;;;;;;;5020658;28;20197;-69
2023/07/13 08:10:16;;;;;;;18.55;9.00;;;;;;;;;;5027081;28;20198;-69
2023/07/13 08:12:41;;;;;;;20.92;8.00;;;;;;;;;;5026136;28;20188;-68
2023/07/13 08:15:11;;;;;;;16.40;8.07;;;;;;;;;;5023675;28;20189;-67
2023/07/13 08:17:37;;;;;;;23.00;8.55;;;;;;;;;;5019964;28;20190;-68
2023/07/13 08:20:03;;;;;;;12.13;7.07;;;;;;;;;;5023100;28;20240;-67
2023/07/13 08:22:29;;;;;;;18.05;8.63;;;;;;;;;;5021692;28;20559;-69
2023/07/13 08:24:57;;;;;;;16.35;8.07;;;;;;;;;;5024295;28;20275;-68
2023/07/13 08:27:24;;;;;;;15.38;7.18;;;;;;;;;;5023947;28;20185;-69
2023/07/13 08:29:50;;;;;;;17.92;8.02;;;;;;;;;;5015509;28;20683;-71
2023/07/13 08:32:18;;;;;;;19.42;8.07;;;;;;;;;;5025803;28;20190;-70
2023/07/13 08:34:44;;;;;;;15.18;8.07;;;;;;;;;;5025895;28;20273;-68
2023/07/13 08:37:09;;;;;;;18.88;8.65;;;;;;;;;;5026653;28;20713;-68
2023/07/13 08:39:35;;;;;;;20.92;8.77;;;;;;;;;;5020076;28;20193;-70
2023/07/13 08:42:06;;;;;;;20.02;8.20;;;;;;;;;;5023818;28;20241;-70
2023/07/13 08:45:16;;;;;;;18.48;8.68;;;;;;;;;;5016261;28;20292;-68
2023/07/13 08:47:54;;;;;;;20.80;8.15;;;;;;;;;;5014674;28;20284;-68
2023/07/13 08:50:26;;;;;;;10.82;6.75;;;;;;;;;;5018950;28;20229;-68
2023/07/13 08:52:52;;;;;;;16.65;7.32;;;;;;;;;;5019743;28;20574;-71
2023/07/13 08:55:24;;;;;;;13.93;7.93;;;;;;;;;;5012179;28;20206;-68
2023/07/13 08:57:56;;;;;;;14.18;8.15;;;;;;;;;;5025318;28;20198;-69
2023/07/13 09:00:22;;;;;;;16.77;7.82;;;;;;;;;;5023677;28;20194;-68
2023/07/13 09:02:59;;;;;;;16.63;8.27;;;;;;;;;;5021313;28;20190;-70
2023/07/13 09:05:32;;;;;;;17.17;7.75;;;;;;;;;;5009857;28;20207;-68
2023/07/13 09:08:28;;;;;;;14.65;7.25;;;;;;;;;;5020835;28;20839;-67
2023/07/13 09:11:21;;;;;;;16.27;7.60;;;;;;;;;;5009648;28;20206;-67
2023/07/13 09:14:26;;;;;;;16.90;8.50;;;;;;;;;;5010522;28;20202;-67
2023/07/13 09:16:51;;;;;;;16.02;8.60;;;;;;;;;;5018661;28;20201;-66
2023/07/13 09:19:26;;;;;;;15.48;8.15;;;;;;;;;;5016936;28;20198;-68
2023/07/13 09:21:54;;;;;;;15.23;7.20;;;;;;;;;;5017193;28;20185;-67
2023/07/13 09:24:41;;;;;;;19.95;7.82;;;;;;;;;;5023859;28;20272;-69
2023/07/13 09:27:21;;;;;;;12.95;6.07;;;;;;;;;;5039141;28;20674;-69
2023/07/13 09:30:17;;;;;;;15.00;7.38;;;;;;;;;;5024325;28;20190;-68
2023/07/13 09:32:50;;;;;;;16.85;8.30;;;;;;;;;;5021658;28;20289;-67
2023/07/13 09:35:30;;;;;;;14.43;7.97;;;;;;;;;;5026716;28;20179;-67
2023/07/13 09:38:16;;;;;;;18.17;8.25;;;;;;;;;;5028877;28;20658;-69
2023/07/13 09:40:52;;;;;;;18.33;8.85;;;;;;;;;;5025144;28;20213;-69
2023/07/13 09:43:20;;;;;;;17.00;9.00;;;;;;;;;;5026761;28;20221;-69
2023/07/13 09:45:47;;;;;;;18.38;8.98;;;;;;;;;;5027450;28;20188;-67
2023/07/13 09:48:14;;;;;;;19.65;9.38;;;;;;;;;;5027000;28;20203;-67
2023/07/13 09:50:41;;;;;;;18.30;9.82;;;;;;;;;;5025396;28;20189;-69
2023/07/13 09:53:18;;;;;;;14.95;8.63;;;;;;;;;;5022388;28;20252;-68
2023/07/13 09:55:46;;;;;;;17.58;8.43;;;;;;;;;;5021351;28;20641;-70
2023/07/13 09:58:12;;;;;;;18.52;9.55;;;;;;;;;;5026058;28;20194;-71
2023/07/13 10:00:40;;;;;;;16.42;8.07;;;;;;;;;;5024981;28;20247;-69
2023/07/13 10:03:18;;;;;;;16.52;8.40;;;;;;;;;;5029284;28;20653;-69
2023/07/13 10:05:46;;;;;;;15.07;8.00;;;;;;;;;;4330518;28;10000814;-67
2023/07/13 10:08:30;;;;;;;13.82;8.18;;;;;;;;;;5021922;28;20757;-67
2023/07/13 10:11:20;;;;;;;15.20;8.25;;;;;;;;;;5020279;28;20213;-68
2023/07/13 10:13:54;;;;;;;20.98;8.02;;;;;;;;;;5016187;28;20390;-68
2023/07/13 10:16:20;;;;;;;17.58;8.18;;;;;;;;;;5021193;28;20654;-66
2023/07/13 10:18:50;;;;;;;18.13;8.63;;;;;;;;;;5027161;28;20190;-68
2023/07/13 10:21:22;;;;;;;16.00;8.98;;;;;;;;;;5024004;28;20241;-67
2023/07/13 10:23:53;;;;;;;17.02;8.75;;;;;;;;;;5017856;28;20536;-67
2023/07/13 10:26:26;;;;;;;17.75;8.25;;;;;;;;;;5020290;28;20240;-67
2023/07/13 10:28:55;;;;;;;16.85;8.35;;;;;;;;;;5026183;28;20197;-71
2023/07/13 10:31:21;;;;;;;14.52;7.35;;;;;;;;;;5014888;28;20534;-71
2023/07/13 10:33:48;;;;;;;16.08;8.52;;;;;;;;;;5021276;28;20225;-67
2023/07/13 10:36:23;;;;;;;12.25;7.20;;;;;;;;;;5019676;28;20190;-68
2023/07/13 10:38:51;;;;;;;16.20;6.78;;;;;;;;;;5024958;28;20201;-69
2023/07/13 10:41:22;;;;;;;13.13;7.75;;;;;;;;;;5023338;28;20222;-70
2023/07/13 10:43:51;;;;;;;16.65;8.00;;;;;;;;;;5026013;28;20218;-70
2023/07/13 10:46:20;;;;;;;24.90;9.13;;;;;;;;;;5023511;28;20255;-69
2023/07/13 10:48:51;;;;;;;14.98;8.73;;;;;;;;;;5024614;28;20186;-75
2023/07/13 10:51:20;;;;;;;14.50;9.10;;;;;;;;;;5032489;28;20349;-74
2023/07/13 10:53:47;;;;;;;18.63;9.32;;;;;;;;;;5026233;28;20201;-72
2023/07/13 10:56:27;;;;;;;15.55;10.30;;;;;;;;;;5024688;28;20220;-74
2023/07/13 10:59:15;;;;;;;20.75;10.60;;;;;;;;;;5015354;28;21433;-70
2023/07/13 11:01:53;;;;;;;15.95;9.98;;;;;;;;;;5024432;28;20784;-71
2023/07/13 11:04:20;;;;;;;18.75;9.25;;;;;;;;;;5013533;28;20940;-71
2023/07/13 11:06:49;;;;;;;15.18;8.63;;;;;;;;;;5022454;28;20209;-70
2023/07/13 11:09:39;;;;;;;14.57;8.10;;;;;;;;;;5024162;28;20273;-71
2023/07/13 11:12:17;;;;;;;14.50;6.93;;;;;;;;;;5025856;28;20185;-71
2023/07/13 11:15:10;;;;;;;10.13;5.90;;;;;;;;;;5016995;28;20209;-70
2023/07/13 11:17:51;;;;;;;10.05;5.03;;;;;;;;;;5021835;28;20198;-70
2023/07/13 11:20:16;;;;;;;11.55;5.28;;;;;;;;;;5023292;28;20784;-71
2023/07/13 11:22:48;;;;;;;12.18;4.80;;;;;;;;;;5021358;28;20198;-71
2023/07/13 11:25:19;;;;;;;11.48;4.95;;;;;;;;;;5017922;28;20660;-70
2023/07/13 11:27:50;;;;;;;11.27;4.90;;;;;;;;;;5018860;28;20197;-70
2023/07/13 11:30:29;;;;;;;11.27;6.68;;;;;;;;;;5019747;28;20222;-70
2023/07/13 11:33:14;;;;;;;12.10;6.43;;;;;;;;;;5015061;28;20273;-72
2023/07/13 11:36:02;;;;;;;10.18;5.85;;;;;;;;;;5012276;28;20232;-70
2023/07/13 11:38:43;;;;;;;9.65;4.93;;;;;;;;;;5019967;28;20214;-67
2023/07/13 11:41:16;;;;;;;8.82;4.03;;;;;;;;;;5015120;28;20229;-69
2023/07/13 11:43:42;;;;;;;8.07;3.85;;;;;;;;;;5023408;28;20757;-70
2023/07/13 11:46:27;;;;;;;12.32;5.00;;;;;;;;;;5023716;28;20198;-70
2023/07/13 11:48:53;;;;;;;11.85;5.15;;;;;;;;;;5021621;28;20231;-69
2023/07/13 11:51:26;;;;;;;6.85;4.55;;;;;;;;;;5016456;28;20190;-70
2023/07/13 11:53:54;;;;;;;5.32;3.15;;;;;;;;;;5024895;28;20194;-71
2023/07/13 11:56:19;;;;;;;8.77;3.20;;;;;;;;;;5018256;28;20651;-69
2023/07/13 11:58:49;;;;;;;3.80;2.38;;;;;;;;;;5017616;28;20265;-68
2023/07/13 12:01:26;;;;;;;5.82;2.17;;;;;;;;;;5015273;28;20533;-67
2023/07/13 12:03:53;;;;;;;3.70;1.95;;;;;;;;;;5006664;28;20214;-68
2023/07/13 12:06:31;;;;;;;4.57;2.10;;;;;;;;;;5025948;28;20190;-69
2023/07/13 12:09:03;;;;;;;4.45;2.17;;;;;;;;;;5017946;28;20224;-67
2023/07/13 12:11:29;;;;;;;4.10;2.20;;;;;;;;;;5013744;28;20198;-69
2023/07/13 12:13:55;;;;;;;5.82;2.30;;;;;;;;;;5017331;28;20201;-68
2023/07/13 12:16:32;;;;;;;4.32;2.20;;;;;;;;;;5017697;28;20197;-70
2023/07/13 12:18:59;;;;;;;2.80;1.60;;;;;;;;;;5014432;28;20284;-67
2023/07/13 12:21:35;;;;;;;3.15;1.70;;;;;;;;;;5014530;28;20221;-69
2023/07/13 12:24:03;;;;;;;4.38;2.03;;;;;;;;;;5023291;28;20214;-70
2023/07/13 12:26:30;;;;;;;2.90;1.48;;;;;;;;;;5020336;28;20190;-69
2023/07/13 12:28:58;;;;;;;5.25;2.22;;;;;;;;;;5021494;28;20240;-67
2023/07/13 12:31:29;;;;;;;4.63;2.10;;;;;;;;;;5020750;28;20229;-69
2023/07/13 12:34:06;;;;;;;3.97;1.83;;;;;;;;;;5012679;28;20679;-69
2023/07/13 12:36:35;;;;;;;5.07;1.83;;;;;;;;;;5012523;28;20251;-70
2023/07/13 12:39:25;;;;;;;3.03;1.73;;;;;;;;;;5011787;28;20645;-70
2023/07/13 12:41:52;;;;;;;2.17;1.48;;;;;;;;;;5014979;28;20553;-70
2023/07/13 12:44:29;;;;;;;4.78;1.20;;;;;;;;;;5022160;28;20689;-70
2023/07/13 12:47:15;;;;;;;2.45;1.67;;;;;;;;;;5010699;28;20197;-69
2023/07/13 12:49:47;;;;;;;3.17;1.70;;;;;;;;;;5019927;28;20198;-71
2023/07/13 12:52:16;;;;;;;4.47;2.00;;;;;;;;;;5012206;28;20543;-71
2023/07/13 12:54:52;;;;;;;6.35;2.20;;;;;;;;;;5011608;28;20191;-71
2023/07/13 12:57:17;;;;;;;4.88;2.03;;;;;;;;;;5017319;28;20236;-70
2023/07/13 12:59:43;;;;;;;8.65;3.47;;;;;;;;;;5013997;28;20610;-71
2023/07/13 13:02:28;;;;;;;11.32;3.75;;;;;;;;;;5016544;28;20604;-78
2023/07/13 13:04:56;;;;;;;10.38;3.95;;;;;;;;;;5019921;28;20225;-77
2023/07/13 13:07:21;;;;;;;7.30;3.72;;;;;;;;;;5017145;28;20492;-78
2023/07/13 13:09:47;;;;;;;6.32;2.97;;;;;;;;;;5017259;28;20202;-76
2023/07/13 13:12:13;;;;;;;4.53;2.65;;;;;;;;;;5015757;28;20191;-75
2023/07/13 13:14:38;;;;;;;4.78;2.20;;;;;;;;;;5017837;28;20277;-78
2023/07/13 13:17:24;;;;;;;5.07;2.45;;;;;;;;;;5018075;28;20190;-75
2023/07/13 13:19:52;;;;;;;6.22;3.17;;;;;;;;;;5021456;28;20197;-76
2023/07/13 13:22:18;;;;;;;5.53;3.20;;;;;;;;;;5010161;28;20206;-76
2023/07/13 13:24:44;;;;;;;5.03;2.55;;;;;;;;;;5017170;28;20214;-75
2023/07/13 13:27:20;;;;;;;4.30;2.42;;;;;;;;;;5013309;28;20719;-75
2023/07/13 13:29:46;;;;;;;6.20;2.90;;;;;;;;;;5015332;28;20197;-72
2023/07/13 13:32:14;;;;;;;4.93;3.05;;;;;;;;;;5021169;28;20273;-72
2023/07/13 13:34:42;;;;;;;6.45;2.50;;;;;;;;;;5018298;28;20190;-71
2023/07/13 13:37:18;;;;;;;6.38;2.80;;;;;;;;;;5018488;28;20201;-72
2023/07/13 13:39:44;;;;;;;4.68;2.40;;;;;;;;;;5020771;28;20221;-72
2023/07/13 13:42:10;;;;;;;4.47;2.63;;;;;;;;;;5020212;28;20378;-70
2023/07/13 13:44:36;;;;;;;5.32;2.40;;;;;;;;;;5018028;28;20210;-72
2023/07/13 13:47:02;;;;;;;3.60;2.08;;;;;;;;;;5020958;28;20216;-72
2023/07/13 13:49:29;;;;;;;4.25;2.10;;;;;;;;;;5018400;28;20190;-70
2023/07/13 13:51:55;;;;;;;3.35;2.20;;;;;;;;;;5014948;28;20229;-72
2023/07/13 13:54:22;;;;;;;7.10;2.47;;;;;;;;;;5010291;28;20191;-71
2023/07/13 13:56:49;;;;;;;5.13;2.63;;;;;;;;;;5012579;28;20252;-71
2023/07/13 13:59:15;;;;;;;5.35;3.10;;;;;;;;;;5012985;28;20202;-70
2023/07/13 14:01:43;;;;;;;8.35;3.03;;;;;;;;;;5011193;28;20211;-71
2023/07/13 14:04:15;;;;;;;7.47;2.97;;;;;;;;;;5013348;28;20222;-70
2023/07/13 14:06:41;;;;;;;6.07;3.00;;;;;;;;;;5008661;28;20210;-71
2023/07/13 14:09:11;;;;;;;5.50;2.80;;;;;;;;;;5018443;28;20240;-71
2023/07/13 14:11:37;;;;;;;6.22;2.95;;;;;;;;;;5014512;28;20190;-71
2023/07/13 14:14:04;;;;;;;11.20;3.80;;;;;;;;;;5020860;28;20198;-71
2023/07/13 14:16:33;;;;;;;5.00;2.78;;;;;;;;;;5025925;28;20201;-70
2023/07/13 14:19:00;;;;;;;7.07;3.10;;;;;;;;;;5022461;28;20194;-71
2023/07/13 14:21:27;;;;;;;8.00;3.33;;;;;;;;;;5021013;28;20552;-71
2023/07/13 14:23:52;;;;;;;6.28;3.00;;;;;;;;;;5012604;28;20242;-70
2023/07/13 14:26:21;;;;;;;7.93;3.45;;;;;;;;;;5020037;28;20501;-69
2023/07/13 14:28:53;;;;;;;5.97;3.25;;;;;;;;;;5017185;28;20277;-70
2023/07/13 14:31:19;;;;;;;5.50;2.92;;;;;;;;;;5012487;28;20209;-70
2023/07/13 14:33:45;;;;;;;6.78;3.55;;;;;;;;;;5013342;28;20238;-71
2023/07/13 14:36:21;;;;;;;6.00;3.53;;;;;;;;;;5019934;28;20193;-70
2023/07/13 14:38:46;;;;;;;7.65;3.03;;;;;;;;;;5026414;28;20705;-71
2023/07/13 14:41:12;;;;;;;6.38;3.00;;;;;;;;;;5026499;28;20301;-70